N728QL KGFK-KTEB
Flight info
| Callsign | N728QL |
|---|---|
| Flight time | 2h 16m |
| Altitude | 41000 |
| Route | GFK FENOK CIBPA MIDLL MUSIT KODEY Q140 ARRKK HNK V167 WEARD V489 COATE |
| Aircraft | C750/M-SBDE3FGHRWXY/S |
Departure
| Time | 2026-05-05 03:33 |
|---|---|
| Airport | Grand Forks International Airport (KGFK) |
Arrival
| Time | 2026-05-05 05:50 |
|---|---|
| Airport | Teterboro Airport (KTEB) |
| Time | Latitude | Longitude | Altitude | Speed | Heading |
|---|---|---|---|---|---|
| 2026-05-05 03:24 | 47.94520 | -97.17774 | 849 ft | 0 kts | 90° |
| 2026-05-05 03:29 | 47.94513 | -97.17766 | 849 ft | 3 kts | 159° |
| 2026-05-05 03:29 | 47.94484 | -97.17848 | 849 ft | 17 kts | 266° |
| 2026-05-05 03:29 | 47.94447 | -97.17959 | 849 ft | 10 kts | 184° |
| 2026-05-05 03:30 | 47.94347 | -97.17959 | 844 ft | 20 kts | 178° |
| 2026-05-05 03:30 | 47.94174 | -97.17960 | 845 ft | 28 kts | 180° |
| 2026-05-05 03:30 | 47.94040 | -97.17961 | 849 ft | 16 kts | 180° |
| 2026-05-05 03:30 | 47.93943 | -97.17964 | 849 ft | 8 kts | 197° |
| 2026-05-05 03:31 | 47.93929 | -97.17981 | 846 ft | 0 kts | 242° |
| 2026-05-05 03:31 | 47.93929 | -97.17982 | 847 ft | 2 kts | 242° |
| 2026-05-05 03:32 | 47.93924 | -97.18075 | 851 ft | 13 kts | 279° |
| 2026-05-05 03:32 | 47.93998 | -97.18124 | 846 ft | 20 kts | 0° |
| 2026-05-05 03:32 | 47.94464 | -97.18128 | 844 ft | 112 kts | 0° |
| 2026-05-05 03:32 | 47.95379 | -97.18114 | 998 ft | 146 kts | 1° |
| 2026-05-05 03:33 | 47.96417 | -97.17671 | 1273 ft | 171 kts | 34° |
| 2026-05-05 03:33 | 47.97136 | -97.16123 | 1602 ft | 197 kts | 67° |
| 2026-05-05 03:33 | 47.97289 | -97.14000 | 2135 ft | 212 kts | 90° |
| 2026-05-05 03:33 | 47.97040 | -97.11872 | 3010 ft | 206 kts | 98° |
| 2026-05-05 03:34 | 47.96741 | -97.09749 | 3651 ft | 212 kts | 98° |
| 2026-05-05 03:34 | 47.96461 | -97.07578 | 4360 ft | 214 kts | 98° |
| 2026-05-05 03:34 | 47.96185 | -97.05384 | 5033 ft | 217 kts | 97° |
| 2026-05-05 03:34 | 47.95907 | -97.03145 | 5644 ft | 223 kts | 97° |
| 2026-05-05 03:35 | 47.95622 | -97.00827 | 6271 ft | 230 kts | 97° |
| 2026-05-05 03:35 | 47.95328 | -96.98464 | 7135 ft | 232 kts | 97° |
| 2026-05-05 03:35 | 47.95026 | -96.96068 | 7999 ft | 238 kts | 97° |
| 2026-05-05 03:35 | 47.94714 | -96.93614 | 8886 ft | 243 kts | 97° |
| 2026-05-05 03:36 | 47.94395 | -96.91111 | 9736 ft | 248 kts | 97° |
| 2026-05-05 03:36 | 47.94395 | -96.88576 | 10411 ft | 247 kts | 75° |
| 2026-05-05 03:36 | 47.94677 | -96.86046 | 11229 ft | 250 kts | 78° |
| 2026-05-05 03:36 | 47.94653 | -96.83407 | 11993 ft | 259 kts | 93° |
| 2026-05-05 03:37 | 47.94325 | -96.80739 | 12815 ft | 263 kts | 98° |
| 2026-05-05 03:37 | 47.94011 | -96.78037 | 13620 ft | 266 kts | 95° |
| 2026-05-05 03:37 | 47.93776 | -96.75278 | 14310 ft | 271 kts | 93° |
| 2026-05-05 03:37 | 47.93535 | -96.72457 | 14990 ft | 276 kts | 94° |
| 2026-05-05 03:38 | 47.93263 | -96.69597 | 15668 ft | 281 kts | 95° |
| 2026-05-05 03:38 | 47.92984 | -96.66679 | 16370 ft | 286 kts | 95° |
| 2026-05-05 03:38 | 47.92709 | -96.63721 | 17076 ft | 291 kts | 95° |
| 2026-05-05 03:38 | 47.92431 | -96.60739 | 17799 ft | 296 kts | 95° |
| 2026-05-05 03:39 | 47.92138 | -96.57634 | 18486 ft | 301 kts | 95° |
| 2026-05-05 03:39 | 47.91844 | -96.54519 | 19177 ft | 305 kts | 95° |
| 2026-05-05 03:39 | 47.91550 | -96.51404 | 19844 ft | 310 kts | 95° |
| 2026-05-05 03:39 | 47.91246 | -96.48209 | 20522 ft | 314 kts | 95° |
| 2026-05-05 03:40 | 47.90936 | -96.44961 | 21203 ft | 318 kts | 95° |
| 2026-05-05 03:40 | 47.90621 | -96.41662 | 21888 ft | 323 kts | 95° |
| 2026-05-05 03:40 | 47.90300 | -96.38319 | 22579 ft | 328 kts | 95° |
| 2026-05-05 03:40 | 47.89975 | -96.34939 | 23305 ft | 332 kts | 96° |
| 2026-05-05 03:41 | 47.89642 | -96.31499 | 23881 ft | 337 kts | 96° |
| 2026-05-05 03:41 | 47.89305 | -96.28019 | 24507 ft | 340 kts | 96° |
| 2026-05-05 03:41 | 47.88966 | -96.24523 | 25131 ft | 343 kts | 96° |
| 2026-05-05 03:41 | 47.88621 | -96.20985 | 25767 ft | 346 kts | 96° |
| 2026-05-05 03:42 | 47.88274 | -96.17431 | 26406 ft | 349 kts | 96° |
| 2026-05-05 03:42 | 47.87926 | -96.13888 | 27033 ft | 352 kts | 96° |
| 2026-05-05 03:42 | 47.87570 | -96.10265 | 27682 ft | 355 kts | 96° |
| 2026-05-05 03:42 | 47.87209 | -96.06606 | 28330 ft | 358 kts | 97° |
| 2026-05-05 03:43 | 47.86843 | -96.02914 | 28995 ft | 362 kts | 97° |
| 2026-05-05 03:43 | 47.86472 | -95.99189 | 29661 ft | 365 kts | 97° |
| 2026-05-05 03:43 | 47.86097 | -95.95423 | 30248 ft | 369 kts | 97° |
| 2026-05-05 03:43 | 47.85718 | -95.91634 | 30751 ft | 374 kts | 97° |
| 2026-05-05 03:44 | 47.85329 | -95.87762 | 31235 ft | 380 kts | 97° |
| 2026-05-05 03:44 | 47.84936 | -95.83862 | 31830 ft | 382 kts | 97° |
| 2026-05-05 03:44 | 47.84537 | -95.79926 | 32394 ft | 385 kts | 97° |
| 2026-05-05 03:44 | 47.84137 | -95.75978 | 32952 ft | 388 kts | 97° |
| 2026-05-05 03:45 | 47.83731 | -95.71996 | 33504 ft | 391 kts | 97° |
| 2026-05-05 03:45 | 47.83321 | -95.67980 | 34009 ft | 394 kts | 97° |
| 2026-05-05 03:45 | 47.82905 | -95.63930 | 34456 ft | 397 kts | 97° |
| 2026-05-05 03:45 | 47.82491 | -95.59909 | 34899 ft | 399 kts | 97° |
| 2026-05-05 03:46 | 47.82063 | -95.55762 | 35347 ft | 402 kts | 98° |
| 2026-05-05 03:46 | 47.81640 | -95.51682 | 35780 ft | 405 kts | 98° |
| 2026-05-05 03:46 | 47.81208 | -95.47534 | 36220 ft | 407 kts | 98° |
| 2026-05-05 03:46 | 47.80771 | -95.43357 | 36658 ft | 410 kts | 98° |
| 2026-05-05 03:47 | 47.80331 | -95.39152 | 37080 ft | 413 kts | 98° |
| 2026-05-05 03:47 | 47.79885 | -95.34912 | 37504 ft | 415 kts | 98° |
| 2026-05-05 03:47 | 47.79435 | -95.30656 | 37923 ft | 418 kts | 98° |
| 2026-05-05 03:47 | 47.78980 | -95.26361 | 38346 ft | 421 kts | 98° |
| 2026-05-05 03:48 | 47.78520 | -95.22038 | 38705 ft | 424 kts | 98° |
| 2026-05-05 03:48 | 47.78063 | -95.17756 | 39042 ft | 427 kts | 98° |
| 2026-05-05 03:48 | 47.77594 | -95.13381 | 39389 ft | 429 kts | 98° |
| 2026-05-05 03:48 | 47.77122 | -95.08997 | 39715 ft | 431 kts | 98° |
| 2026-05-05 03:49 | 47.76646 | -95.04590 | 40044 ft | 433 kts | 99° |
| 2026-05-05 03:49 | 47.76165 | -95.00146 | 40345 ft | 436 kts | 99° |
| 2026-05-05 03:49 | 47.75679 | -94.95682 | 40668 ft | 438 kts | 99° |
| 2026-05-05 03:49 | 47.75188 | -94.91185 | 40822 ft | 446 kts | 99° |
| 2026-05-05 03:50 | 47.74685 | -94.86590 | 40827 ft | 457 kts | 99° |
| 2026-05-05 03:50 | 47.74166 | -94.81877 | 40828 ft | 468 kts | 99° |
| 2026-05-05 03:50 | 47.73086 | -94.72124 | 40830 ft | 488 kts | 99° |
| 2026-05-05 03:51 | 47.71953 | -94.61969 | 40849 ft | 508 kts | 99° |
| 2026-05-05 03:51 | 47.70766 | -94.51427 | 40818 ft | 526 kts | 99° |
| 2026-05-05 03:52 | 47.69533 | -94.40562 | 40822 ft | 542 kts | 99° |
| 2026-05-05 03:52 | 47.68251 | -94.29371 | 40818 ft | 557 kts | 99° |
| 2026-05-05 03:53 | 47.66934 | -94.17984 | 40806 ft | 571 kts | 99° |
| 2026-05-05 03:53 | 47.65564 | -94.06240 | 40804 ft | 583 kts | 100° |
| 2026-05-05 03:54 | 47.64170 | -93.94373 | 40802 ft | 580 kts | 99° |
| 2026-05-05 03:54 | 47.62783 | -93.82632 | 40785 ft | 576 kts | 99° |
| 2026-05-05 03:55 | 47.61380 | -93.70968 | 40751 ft | 574 kts | 99° |
| 2026-05-05 03:55 | 47.59986 | -93.59400 | 40748 ft | 573 kts | 100° |
| 2026-05-05 03:56 | 47.58561 | -93.47761 | 40752 ft | 572 kts | 100° |
| 2026-05-05 03:56 | 47.57137 | -93.36180 | 40754 ft | 572 kts | 100° |
| 2026-05-05 03:57 | 47.55703 | -93.24644 | 40752 ft | 571 kts | 100° |
| 2026-05-05 03:57 | 47.54253 | -93.13067 | 40733 ft | 571 kts | 100° |
| 2026-05-05 03:58 | 47.52935 | -93.01491 | 40727 ft | 570 kts | 98° |
| 2026-05-05 03:58 | 47.51685 | -92.89903 | 40726 ft | 570 kts | 99° |
| 2026-05-05 03:59 | 47.50432 | -92.78315 | 40733 ft | 570 kts | 98° |
| 2026-05-05 03:59 | 47.49174 | -92.66813 | 40733 ft | 570 kts | 99° |
| 2026-05-05 04:00 | 47.47896 | -92.55245 | 40726 ft | 570 kts | 99° |
| 2026-05-05 04:00 | 47.46605 | -92.43655 | 40726 ft | 570 kts | 99° |
| 2026-05-05 04:01 | 47.45305 | -92.32120 | 40723 ft | 569 kts | 99° |
| 2026-05-05 04:01 | 47.44001 | -92.20623 | 40721 ft | 569 kts | 99° |
| 2026-05-05 04:02 | 47.42676 | -92.09078 | 40711 ft | 569 kts | 99° |
| 2026-05-05 04:02 | 47.41350 | -91.97614 | 40706 ft | 569 kts | 99° |
| 2026-05-05 04:03 | 47.40002 | -91.86085 | 40701 ft | 569 kts | 99° |
| 2026-05-05 04:03 | 47.38646 | -91.74564 | 40694 ft | 569 kts | 100° |
| 2026-05-05 04:04 | 47.37275 | -91.63039 | 40679 ft | 569 kts | 100° |
| 2026-05-05 04:04 | 47.35897 | -91.51549 | 40696 ft | 569 kts | 100° |
| 2026-05-05 04:05 | 47.34515 | -91.40134 | 40689 ft | 568 kts | 100° |
| 2026-05-05 04:05 | 47.33114 | -91.28657 | 40689 ft | 568 kts | 100° |
| 2026-05-05 04:06 | 47.31703 | -91.17197 | 40688 ft | 568 kts | 101° |
| 2026-05-05 04:06 | 47.30278 | -91.05728 | 40684 ft | 568 kts | 101° |
| 2026-05-05 04:07 | 47.29084 | -90.96188 | 40689 ft | 568 kts | 101° |
| 2026-05-05 04:07 | 47.27402 | -90.82870 | 40685 ft | 568 kts | 101° |
| 2026-05-05 04:08 | 47.26180 | -90.73265 | 40686 ft | 568 kts | 101° |
| 2026-05-05 04:08 | 47.24721 | -90.61892 | 40681 ft | 568 kts | 101° |
| 2026-05-05 04:09 | 47.23241 | -90.50456 | 40681 ft | 568 kts | 101° |
| 2026-05-05 04:09 | 47.21751 | -90.39027 | 40687 ft | 568 kts | 101° |
| 2026-05-05 04:10 | 47.20260 | -90.27688 | 40677 ft | 568 kts | 101° |
| 2026-05-05 04:10 | 47.18738 | -90.16206 | 40677 ft | 568 kts | 101° |
| 2026-05-05 04:11 | 47.17215 | -90.04810 | 40681 ft | 568 kts | 102° |
| 2026-05-05 04:11 | 47.15691 | -89.93495 | 40678 ft | 568 kts | 102° |
| 2026-05-05 04:12 | 47.14136 | -89.82045 | 40677 ft | 568 kts | 102° |
| 2026-05-05 04:12 | 47.12585 | -89.70709 | 40678 ft | 568 kts | 102° |
| 2026-05-05 04:13 | 47.11017 | -89.59338 | 40674 ft | 568 kts | 102° |
| 2026-05-05 04:13 | 47.09436 | -89.47963 | 40661 ft | 568 kts | 102° |
| 2026-05-05 04:14 | 47.07847 | -89.36612 | 40661 ft | 568 kts | 102° |
| 2026-05-05 04:14 | 47.06244 | -89.25253 | 40656 ft | 568 kts | 102° |
| 2026-05-05 04:15 | 47.04640 | -89.13975 | 40655 ft | 569 kts | 103° |
| 2026-05-05 04:15 | 47.02983 | -89.02529 | 40663 ft | 579 kts | 103° |
| 2026-05-05 04:16 | 47.01317 | -88.90896 | 40656 ft | 582 kts | 103° |
| 2026-05-05 04:16 | 46.99628 | -88.79463 | 40637 ft | 568 kts | 104° |
| 2026-05-05 04:17 | 46.97983 | -88.68197 | 40610 ft | 563 kts | 103° |
| 2026-05-05 04:17 | 46.96337 | -88.56968 | 40614 ft | 568 kts | 103° |
| 2026-05-05 04:18 | 46.94644 | -88.45561 | 40626 ft | 579 kts | 103° |
| 2026-05-05 04:18 | 46.92260 | -88.34339 | 40613 ft | 579 kts | 112° |
| 2026-05-05 04:19 | 46.89381 | -88.23431 | 40612 ft | 571 kts | 112° |
| 2026-05-05 04:19 | 46.86735 | -88.12546 | 40617 ft | 564 kts | 112° |
| 2026-05-05 04:20 | 46.83957 | -88.01895 | 40621 ft | 558 kts | 112° |
| 2026-05-05 04:20 | 46.81303 | -87.91291 | 40620 ft | 553 kts | 112° |
| 2026-05-05 04:21 | 46.78592 | -87.80830 | 40616 ft | 549 kts | 113° |
| 2026-05-05 04:21 | 46.75949 | -87.70488 | 40616 ft | 545 kts | 112° |
| 2026-05-05 04:22 | 46.73276 | -87.60188 | 40617 ft | 541 kts | 113° |
| 2026-05-05 04:22 | 46.70623 | -87.49952 | 40615 ft | 538 kts | 113° |
| 2026-05-05 04:23 | 46.67969 | -87.39783 | 40612 ft | 535 kts | 113° |
| 2026-05-05 04:23 | 46.65283 | -87.29534 | 40623 ft | 550 kts | 113° |
| 2026-05-05 04:24 | 46.62513 | -87.18999 | 40626 ft | 565 kts | 113° |
| 2026-05-05 04:25 | 46.58257 | -87.02908 | 40621 ft | 569 kts | 113° |
| 2026-05-05 04:25 | 46.55398 | -86.92174 | 40619 ft | 570 kts | 113° |
| 2026-05-05 04:26 | 46.52528 | -86.81433 | 40619 ft | 577 kts | 113° |
| 2026-05-05 04:26 | 46.49604 | -86.70546 | 40598 ft | 577 kts | 113° |
| 2026-05-05 04:27 | 46.46673 | -86.59685 | 40602 ft | 578 kts | 114° |
| 2026-05-05 04:27 | 46.43732 | -86.48833 | 40602 ft | 578 kts | 114° |
| 2026-05-05 04:28 | 46.40778 | -86.37986 | 40591 ft | 578 kts | 114° |
| 2026-05-05 04:28 | 46.37815 | -86.27150 | 40593 ft | 577 kts | 114° |
| 2026-05-05 04:29 | 46.34860 | -86.16397 | 40594 ft | 577 kts | 114° |
| 2026-05-05 04:29 | 46.31878 | -86.05594 | 40595 ft | 577 kts | 114° |
| 2026-05-05 04:30 | 46.28889 | -85.94811 | 40611 ft | 577 kts | 114° |
| 2026-05-05 04:30 | 46.25899 | -85.84076 | 40606 ft | 579 kts | 114° |
| 2026-05-05 04:31 | 46.22884 | -85.73295 | 40605 ft | 578 kts | 115° |
| 2026-05-05 04:31 | 46.19854 | -85.62515 | 40598 ft | 578 kts | 115° |
| 2026-05-05 04:32 | 46.16841 | -85.51839 | 40597 ft | 578 kts | 115° |
| 2026-05-05 04:32 | 46.13798 | -85.41103 | 40598 ft | 578 kts | 115° |
| 2026-05-05 04:33 | 46.10986 | -85.30228 | 40596 ft | 580 kts | 110° |
| 2026-05-05 04:33 | 46.08490 | -85.19186 | 40595 ft | 578 kts | 111° |
| 2026-05-05 04:34 | 46.05878 | -85.08227 | 40592 ft | 577 kts | 111° |
| 2026-05-05 04:34 | 46.03325 | -84.97211 | 40593 ft | 580 kts | 111° |
| 2026-05-05 04:35 | 46.00731 | -84.86315 | 40598 ft | 579 kts | 111° |
| 2026-05-05 04:35 | 45.98144 | -84.75354 | 40597 ft | 578 kts | 111° |
| 2026-05-05 04:36 | 45.95526 | -84.64409 | 40599 ft | 578 kts | 112° |
| 2026-05-05 04:36 | 45.92907 | -84.53458 | 40597 ft | 578 kts | 112° |
| 2026-05-05 04:37 | 45.90293 | -84.42606 | 40595 ft | 577 kts | 112° |
| 2026-05-05 04:37 | 45.87654 | -84.31697 | 40597 ft | 577 kts | 112° |
| 2026-05-05 04:38 | 45.85013 | -84.20834 | 40600 ft | 577 kts | 112° |
| 2026-05-05 04:38 | 45.82357 | -84.09964 | 40593 ft | 577 kts | 112° |
| 2026-05-05 04:39 | 45.79697 | -83.99127 | 40594 ft | 577 kts | 113° |
| 2026-05-05 04:39 | 45.77019 | -83.88272 | 40593 ft | 577 kts | 113° |
| 2026-05-05 04:40 | 45.74351 | -83.77505 | 40596 ft | 577 kts | 113° |
| 2026-05-05 04:40 | 45.71657 | -83.66688 | 40587 ft | 576 kts | 113° |
| 2026-05-05 04:41 | 45.68956 | -83.55894 | 40588 ft | 575 kts | 113° |
| 2026-05-05 04:41 | 45.66249 | -83.45124 | 40587 ft | 575 kts | 114° |
| 2026-05-05 04:42 | 45.63530 | -83.34360 | 40576 ft | 575 kts | 114° |
| 2026-05-05 04:42 | 45.60817 | -83.23668 | 40582 ft | 576 kts | 114° |
| 2026-05-05 04:43 | 45.58075 | -83.12913 | 40587 ft | 576 kts | 114° |
| 2026-05-05 04:43 | 45.55320 | -83.02158 | 40587 ft | 575 kts | 114° |
| 2026-05-05 04:44 | 45.52557 | -82.91418 | 40578 ft | 575 kts | 114° |
| 2026-05-05 04:44 | 45.49790 | -82.80716 | 40578 ft | 575 kts | 114° |
| 2026-05-05 04:45 | 45.47030 | -82.70087 | 40581 ft | 575 kts | 114° |
| 2026-05-05 04:45 | 45.44241 | -82.59397 | 40566 ft | 575 kts | 114° |
| 2026-05-05 04:46 | 45.41450 | -82.48746 | 40566 ft | 574 kts | 114° |
| 2026-05-05 04:46 | 45.38262 | -82.38396 | 40560 ft | 567 kts | 124° |
| 2026-05-05 04:47 | 45.34132 | -82.28874 | 40572 ft | 566 kts | 126° |
| 2026-05-05 04:47 | 45.30148 | -82.19203 | 40560 ft | 566 kts | 124° |
| 2026-05-05 04:48 | 45.26100 | -82.09696 | 40559 ft | 565 kts | 126° |
| 2026-05-05 04:48 | 45.22047 | -82.00091 | 40559 ft | 566 kts | 125° |
| 2026-05-05 04:49 | 45.17988 | -81.90524 | 40559 ft | 565 kts | 126° |
| 2026-05-05 04:49 | 45.13914 | -81.80986 | 40555 ft | 566 kts | 125° |
| 2026-05-05 04:50 | 45.09850 | -81.71448 | 40555 ft | 565 kts | 126° |
| 2026-05-05 04:50 | 45.05757 | -81.61933 | 40558 ft | 566 kts | 126° |
| 2026-05-05 04:51 | 45.01692 | -81.52465 | 40559 ft | 567 kts | 126° |
| 2026-05-05 04:51 | 44.97561 | -81.42918 | 40559 ft | 568 kts | 126° |
| 2026-05-05 04:52 | 44.93443 | -81.33399 | 40548 ft | 568 kts | 126° |
| 2026-05-05 04:52 | 44.89314 | -81.23909 | 40551 ft | 567 kts | 126° |
| 2026-05-05 04:53 | 44.85183 | -81.14432 | 40546 ft | 567 kts | 126° |
| 2026-05-05 04:53 | 44.81059 | -81.05016 | 40541 ft | 569 kts | 125° |
| 2026-05-05 04:54 | 44.76895 | -80.95527 | 40543 ft | 568 kts | 126° |
| 2026-05-05 04:54 | 44.72731 | -80.86078 | 40537 ft | 568 kts | 125° |
| 2026-05-05 04:55 | 44.68566 | -80.76652 | 40540 ft | 566 kts | 126° |
| 2026-05-05 04:55 | 44.64429 | -80.67325 | 40543 ft | 567 kts | 126° |
| 2026-05-05 04:56 | 44.60251 | -80.57932 | 40536 ft | 566 kts | 126° |
| 2026-05-05 04:56 | 44.56782 | -80.50160 | 40556 ft | 565 kts | 126° |
| 2026-05-05 04:57 | 44.52608 | -80.40834 | 40557 ft | 565 kts | 126° |
| 2026-05-05 04:57 | 44.48419 | -80.31505 | 40559 ft | 565 kts | 126° |
| 2026-05-05 04:58 | 44.44227 | -80.22199 | 40556 ft | 565 kts | 126° |
| 2026-05-05 04:58 | 44.40026 | -80.12905 | 40567 ft | 565 kts | 126° |
| 2026-05-05 04:59 | 44.35841 | -80.03675 | 40559 ft | 565 kts | 126° |
| 2026-05-05 04:59 | 44.31623 | -79.94399 | 40576 ft | 565 kts | 126° |
| 2026-05-05 05:00 | 44.27391 | -79.85128 | 40582 ft | 565 kts | 126° |
| 2026-05-05 05:00 | 44.23160 | -79.75884 | 40596 ft | 564 kts | 126° |
| 2026-05-05 05:01 | 44.18924 | -79.66661 | 40606 ft | 565 kts | 126° |
| 2026-05-05 05:01 | 44.14710 | -79.57514 | 40607 ft | 564 kts | 126° |
| 2026-05-05 05:02 | 44.10458 | -79.48316 | 40608 ft | 565 kts | 126° |
| 2026-05-05 05:02 | 44.06199 | -79.39128 | 40614 ft | 564 kts | 126° |
| 2026-05-05 05:03 | 44.01932 | -79.29955 | 40624 ft | 564 kts | 126° |
| 2026-05-05 05:03 | 43.97658 | -79.20795 | 40637 ft | 564 kts | 126° |
| 2026-05-05 05:04 | 43.93382 | -79.11660 | 40638 ft | 564 kts | 126° |
| 2026-05-05 05:04 | 43.89129 | -79.02602 | 40625 ft | 563 kts | 126° |
| 2026-05-05 05:05 | 43.84848 | -78.93512 | 40636 ft | 563 kts | 126° |
| 2026-05-05 05:05 | 43.80556 | -78.84429 | 40637 ft | 563 kts | 126° |
| 2026-05-05 05:06 | 43.76261 | -78.75364 | 40637 ft | 563 kts | 126° |
| 2026-05-05 05:06 | 43.71959 | -78.66316 | 40648 ft | 562 kts | 126° |
| 2026-05-05 05:07 | 43.67655 | -78.57292 | 40651 ft | 562 kts | 126° |
| 2026-05-05 05:07 | 43.63348 | -78.48287 | 40656 ft | 561 kts | 126° |
| 2026-05-05 05:08 | 43.59062 | -78.39354 | 40651 ft | 561 kts | 127° |
| 2026-05-05 05:08 | 43.54743 | -78.30381 | 40652 ft | 561 kts | 127° |
| 2026-05-05 05:09 | 43.50421 | -78.21429 | 40661 ft | 561 kts | 127° |
| 2026-05-05 05:09 | 43.46104 | -78.12513 | 40662 ft | 561 kts | 127° |
| 2026-05-05 05:10 | 43.41769 | -78.03588 | 40671 ft | 561 kts | 127° |
| 2026-05-05 05:10 | 43.37426 | -77.94672 | 40681 ft | 560 kts | 127° |
| 2026-05-05 05:11 | 43.33092 | -77.85803 | 40690 ft | 559 kts | 127° |
| 2026-05-05 05:11 | 43.28742 | -77.76927 | 40713 ft | 559 kts | 127° |
| 2026-05-05 05:12 | 43.24394 | -77.68084 | 40720 ft | 559 kts | 127° |
| 2026-05-05 05:12 | 43.20062 | -77.59298 | 40723 ft | 559 kts | 127° |
| 2026-05-05 05:13 | 43.15693 | -77.50462 | 40717 ft | 560 kts | 127° |
| 2026-05-05 05:13 | 43.11322 | -77.41649 | 40715 ft | 558 kts | 127° |
| 2026-05-05 05:14 | 43.06947 | -77.32856 | 40733 ft | 559 kts | 127° |
| 2026-05-05 05:14 | 43.02569 | -77.24083 | 40736 ft | 559 kts | 127° |
| 2026-05-05 05:15 | 42.98207 | -77.15365 | 40730 ft | 559 kts | 127° |
| 2026-05-05 05:15 | 42.93811 | -77.06606 | 40727 ft | 559 kts | 127° |
| 2026-05-05 05:16 | 42.89404 | -76.97851 | 40729 ft | 558 kts | 127° |
| 2026-05-05 05:16 | 42.84998 | -76.89124 | 40746 ft | 558 kts | 127° |
| 2026-05-05 05:17 | 42.80589 | -76.80418 | 40736 ft | 557 kts | 127° |
| 2026-05-05 05:17 | 42.76211 | -76.71799 | 40745 ft | 557 kts | 127° |
| 2026-05-05 05:18 | 42.71792 | -76.63120 | 40773 ft | 557 kts | 127° |
| 2026-05-05 05:18 | 42.67368 | -76.54460 | 40781 ft | 557 kts | 128° |
| 2026-05-05 05:18 | 42.65138 | -76.50109 | 40258 ft | 558 kts | 128° |
| 2026-05-05 05:19 | 42.62966 | -76.45869 | 39649 ft | 547 kts | 128° |
| 2026-05-05 05:19 | 42.60815 | -76.41666 | 39036 ft | 537 kts | 128° |
| 2026-05-05 05:19 | 42.58692 | -76.37537 | 38448 ft | 530 kts | 128° |
| 2026-05-05 05:19 | 42.56593 | -76.33468 | 37730 ft | 523 kts | 128° |
| 2026-05-05 05:20 | 42.54511 | -76.29433 | 37027 ft | 517 kts | 128° |
| 2026-05-05 05:20 | 42.52464 | -76.25464 | 36353 ft | 511 kts | 127° |
| 2026-05-05 05:20 | 42.50457 | -76.21583 | 35710 ft | 505 kts | 127° |
| 2026-05-05 05:20 | 42.48449 | -76.17708 | 35080 ft | 498 kts | 127° |
| 2026-05-05 05:21 | 42.46472 | -76.13889 | 34460 ft | 492 kts | 127° |
| 2026-05-05 05:21 | 42.44510 | -76.10103 | 33869 ft | 490 kts | 127° |
| 2026-05-05 05:21 | 42.42551 | -76.06334 | 33194 ft | 486 kts | 127° |
| 2026-05-05 05:21 | 42.40616 | -76.02617 | 32525 ft | 480 kts | 127° |
| 2026-05-05 05:22 | 42.38708 | -75.98950 | 31874 ft | 473 kts | 127° |
| 2026-05-05 05:22 | 42.36822 | -75.95331 | 31234 ft | 469 kts | 127° |
| 2026-05-05 05:22 | 42.34944 | -75.91741 | 30584 ft | 465 kts | 128° |
| 2026-05-05 05:22 | 42.33080 | -75.88174 | 29971 ft | 461 kts | 128° |
| 2026-05-05 05:23 | 42.31246 | -75.84661 | 29285 ft | 456 kts | 128° |
| 2026-05-05 05:23 | 42.29423 | -75.81181 | 28586 ft | 451 kts | 128° |
| 2026-05-05 05:23 | 42.27676 | -75.77764 | 27907 ft | 446 kts | 124° |
| 2026-05-05 05:23 | 42.26064 | -75.74193 | 27245 ft | 443 kts | 124° |
| 2026-05-05 05:24 | 42.24426 | -75.70678 | 26614 ft | 440 kts | 125° |
| 2026-05-05 05:24 | 42.22766 | -75.67145 | 26115 ft | 459 kts | 124° |
| 2026-05-05 05:24 | 42.21029 | -75.63364 | 25636 ft | 488 kts | 124° |
| 2026-05-05 05:24 | 42.19202 | -75.59355 | 25194 ft | 512 kts | 123° |
| 2026-05-05 05:25 | 42.17308 | -75.55259 | 24730 ft | 514 kts | 124° |
| 2026-05-05 05:25 | 42.15396 | -75.51172 | 24265 ft | 515 kts | 124° |
| 2026-05-05 05:25 | 42.13499 | -75.47082 | 23823 ft | 513 kts | 124° |
| 2026-05-05 05:25 | 42.11645 | -75.43057 | 23346 ft | 510 kts | 124° |
| 2026-05-05 05:26 | 42.09764 | -75.39000 | 22785 ft | 509 kts | 124° |
| 2026-05-05 05:26 | 42.07888 | -75.34990 | 22246 ft | 504 kts | 124° |
| 2026-05-05 05:26 | 42.06076 | -75.30991 | 21557 ft | 497 kts | 121° |
| 2026-05-05 05:26 | 42.04522 | -75.26836 | 20911 ft | 494 kts | 118° |
| 2026-05-05 05:27 | 42.03001 | -75.22737 | 20282 ft | 490 kts | 119° |
| 2026-05-05 05:27 | 42.01450 | -75.18660 | 19667 ft | 485 kts | 120° |
| 2026-05-05 05:27 | 41.98403 | -75.10637 | 18482 ft | 477 kts | 120° |
| 2026-05-05 05:28 | 41.96914 | -75.06670 | 17860 ft | 472 kts | 120° |
| 2026-05-05 05:28 | 41.95430 | -75.02758 | 17198 ft | 468 kts | 120° |
| 2026-05-05 05:28 | 41.93950 | -74.98883 | 16554 ft | 464 kts | 120° |
| 2026-05-05 05:28 | 41.92487 | -74.95041 | 15914 ft | 460 kts | 120° |
| 2026-05-05 05:29 | 41.91039 | -74.91223 | 15302 ft | 456 kts | 119° |
| 2026-05-05 05:29 | 41.89623 | -74.87496 | 14703 ft | 452 kts | 119° |
| 2026-05-05 05:29 | 41.88196 | -74.83752 | 14209 ft | 449 kts | 119° |
| 2026-05-05 05:29 | 41.86774 | -74.80030 | 13740 ft | 447 kts | 119° |
| 2026-05-05 05:30 | 41.85360 | -74.76331 | 13220 ft | 444 kts | 119° |
| 2026-05-05 05:30 | 41.83956 | -74.72661 | 12696 ft | 441 kts | 119° |
| 2026-05-05 05:30 | 41.82559 | -74.69013 | 12182 ft | 437 kts | 119° |
| 2026-05-05 05:30 | 41.81169 | -74.65395 | 11671 ft | 434 kts | 119° |
| 2026-05-05 05:31 | 41.79791 | -74.61807 | 11174 ft | 431 kts | 119° |
| 2026-05-05 05:31 | 41.78240 | -74.58403 | 10518 ft | 426 kts | 131° |
| 2026-05-05 05:31 | 41.76060 | -74.55837 | 9851 ft | 414 kts | 149° |
| 2026-05-05 05:31 | 41.73476 | -74.54234 | 9142 ft | 402 kts | 166° |
| 2026-05-05 05:32 | 41.70770 | -74.53686 | 8460 ft | 390 kts | 182° |
| 2026-05-05 05:32 | 41.68113 | -74.54029 | 7824 ft | 378 kts | 192° |
| 2026-05-05 05:32 | 41.65627 | -74.54509 | 7216 ft | 344 kts | 192° |
| 2026-05-05 05:32 | 41.63354 | -74.54905 | 6600 ft | 318 kts | 190° |
| 2026-05-05 05:33 | 41.61207 | -74.54616 | 5876 ft | 312 kts | 170° |
| 2026-05-05 05:33 | 41.59189 | -74.53616 | 5227 ft | 298 kts | 164° |
| 2026-05-05 05:33 | 41.57347 | -74.52624 | 4964 ft | 278 kts | 165° |
| 2026-05-05 05:33 | 41.55639 | -74.51726 | 4955 ft | 252 kts | 166° |
| 2026-05-05 05:34 | 41.54028 | -74.50883 | 4980 ft | 247 kts | 166° |
| 2026-05-05 05:34 | 41.52404 | -74.50037 | 4959 ft | 253 kts | 166° |
| 2026-05-05 05:34 | 41.50787 | -74.49180 | 4955 ft | 237 kts | 165° |
| 2026-05-05 05:34 | 41.49320 | -74.48391 | 4962 ft | 233 kts | 166° |
| 2026-05-05 05:35 | 41.47715 | -74.47571 | 4977 ft | 252 kts | 166° |
| 2026-05-05 05:35 | 41.46062 | -74.46695 | 4989 ft | 258 kts | 165° |
| 2026-05-05 05:35 | 41.44401 | -74.45806 | 4985 ft | 257 kts | 165° |
| 2026-05-05 05:35 | 41.42729 | -74.44929 | 4993 ft | 260 kts | 165° |
| 2026-05-05 05:36 | 41.41061 | -74.44049 | 4986 ft | 258 kts | 165° |
| 2026-05-05 05:36 | 41.39411 | -74.43180 | 4987 ft | 258 kts | 166° |
| 2026-05-05 05:36 | 41.37742 | -74.42305 | 4990 ft | 259 kts | 165° |
| 2026-05-05 05:36 | 41.36058 | -74.41422 | 4994 ft | 260 kts | 165° |
| 2026-05-05 05:37 | 41.34372 | -74.40535 | 4952 ft | 261 kts | 165° |
| 2026-05-05 05:37 | 41.32696 | -74.39655 | 4691 ft | 256 kts | 166° |
| 2026-05-05 05:37 | 41.31045 | -74.38794 | 4440 ft | 254 kts | 166° |
| 2026-05-05 05:37 | 41.29404 | -74.37934 | 4179 ft | 252 kts | 166° |
| 2026-05-05 05:38 | 41.27781 | -74.37078 | 3932 ft | 249 kts | 166° |
| 2026-05-05 05:38 | 41.26173 | -74.36233 | 3680 ft | 248 kts | 166° |
| 2026-05-05 05:38 | 41.24575 | -74.35399 | 3412 ft | 244 kts | 166° |
| 2026-05-05 05:38 | 41.23002 | -74.34588 | 3159 ft | 241 kts | 166° |
| 2026-05-05 05:39 | 41.21460 | -74.33773 | 2859 ft | 228 kts | 166° |
| 2026-05-05 05:39 | 41.20098 | -74.33046 | 2769 ft | 196 kts | 168° |
| 2026-05-05 05:39 | 41.18858 | -74.32393 | 2771 ft | 194 kts | 167° |
| 2026-05-05 05:39 | 41.17771 | -74.31249 | 2762 ft | 210 kts | 139° |
| 2026-05-05 05:40 | 41.16998 | -74.29540 | 2812 ft | 219 kts | 128° |
| 2026-05-05 05:40 | 41.16267 | -74.27776 | 2795 ft | 218 kts | 129° |
| 2026-05-05 05:40 | 41.15525 | -74.26047 | 2786 ft | 219 kts | 129° |
| 2026-05-05 05:40 | 41.14782 | -74.24297 | 2760 ft | 218 kts | 129° |
| 2026-05-05 05:41 | 41.14039 | -74.22533 | 2808 ft | 218 kts | 129° |
| 2026-05-05 05:41 | 41.13285 | -74.20782 | 2807 ft | 215 kts | 129° |
| 2026-05-05 05:41 | 41.12531 | -74.19042 | 2783 ft | 218 kts | 130° |
| 2026-05-05 05:41 | 41.11790 | -74.17275 | 2783 ft | 220 kts | 128° |
| 2026-05-05 05:42 | 41.11065 | -74.15525 | 2801 ft | 219 kts | 128° |
| 2026-05-05 05:42 | 41.10310 | -74.13770 | 2792 ft | 217 kts | 130° |
| 2026-05-05 05:42 | 41.09345 | -74.12335 | 2788 ft | 203 kts | 149° |
| 2026-05-05 05:42 | 41.08305 | -74.11137 | 2789 ft | 185 kts | 149° |
| 2026-05-05 05:43 | 41.07404 | -74.10053 | 2785 ft | 168 kts | 150° |
| 2026-05-05 05:43 | 41.06525 | -74.09018 | 2785 ft | 166 kts | 150° |
| 2026-05-05 05:43 | 41.05952 | -74.08339 | 2783 ft | 169 kts | 151° |
| 2026-05-05 05:43 | 41.05068 | -74.07296 | 2782 ft | 170 kts | 150° |
| 2026-05-05 05:44 | 41.03896 | -74.05901 | 2789 ft | 171 kts | 150° |
| 2026-05-05 05:44 | 41.03280 | -74.05220 | 2780 ft | 168 kts | 156° |
| 2026-05-05 05:44 | 41.01894 | -74.04793 | 2797 ft | 153 kts | 188° |
| 2026-05-05 05:44 | 41.01189 | -74.04801 | 2808 ft | 151 kts | 189° |
| 2026-05-05 05:45 | 41.00164 | -74.04841 | 2798 ft | 138 kts | 191° |
| 2026-05-05 05:45 | 40.99184 | -74.04910 | 2670 ft | 140 kts | 191° |
| 2026-05-05 05:45 | 40.98229 | -74.04979 | 2489 ft | 136 kts | 191° |
| 2026-05-05 05:45 | 40.97301 | -74.05045 | 2309 ft | 124 kts | 191° |
| 2026-05-05 05:46 | 40.96496 | -74.05098 | 2147 ft | 114 kts | 191° |
| 2026-05-05 05:46 | 40.95715 | -74.05156 | 2009 ft | 114 kts | 191° |
| 2026-05-05 05:46 | 40.94920 | -74.05214 | 1858 ft | 115 kts | 191° |
| 2026-05-05 05:46 | 40.94106 | -74.05276 | 1715 ft | 117 kts | 190° |
| 2026-05-05 05:47 | 40.93292 | -74.05337 | 1558 ft | 122 kts | 190° |
| 2026-05-05 05:47 | 40.92450 | -74.05398 | 1387 ft | 115 kts | 188° |
| 2026-05-05 05:47 | 40.91688 | -74.05453 | 1231 ft | 108 kts | 187° |
| 2026-05-05 05:47 | 40.90926 | -74.05508 | 1077 ft | 111 kts | 185° |
| 2026-05-05 05:48 | 40.90129 | -74.05556 | 942 ft | 116 kts | 184° |
| 2026-05-05 05:48 | 40.89308 | -74.05613 | 843 ft | 118 kts | 185° |
| 2026-05-05 05:48 | 40.88482 | -74.05694 | 707 ft | 121 kts | 185° |
| 2026-05-05 05:48 | 40.87649 | -74.05761 | 572 ft | 118 kts | 183° |
| 2026-05-05 05:49 | 40.86845 | -74.05809 | 368 ft | 116 kts | 182° |
| 2026-05-05 05:49 | 40.86048 | -74.05871 | 166 ft | 113 kts | 184° |
| 2026-05-05 05:49 | 40.85293 | -74.05935 | 15 ft | 102 kts | 181° |
| 2026-05-05 05:49 | 40.84727 | -74.05966 | 11 ft | 53 kts | 182° |
| 2026-05-05 05:50 | 40.84633 | -74.06056 | 10 ft | 15 kts | 301° |
| 2026-05-05 05:50 | 40.84649 | -74.06087 | 11 ft | 0 kts | 305° |
| 2026-05-05 05:50 | 40.84658 | -74.06105 | 11 ft | 9 kts | 304° |
| 2026-05-05 05:51 | 40.84729 | -74.06230 | 12 ft | 25 kts | 308° |
| 2026-05-05 05:51 | 40.84835 | -74.06410 | 18 ft | 24 kts | 308° |
| 2026-05-05 05:51 | 40.84937 | -74.06580 | 19 ft | 23 kts | 308° |
| 2026-05-05 05:51 | 40.85042 | -74.06728 | 20 ft | 22 kts | 332° |
| 2026-05-05 05:52 | 40.85105 | -74.06810 | 18 ft | 6 kts | 207° |